createdAt,value
2022-08-17T00:00:34.246Z,11.90
2022-08-17T00:03:05.265Z,11.80
2022-08-17T00:05:34.830Z,14.83
2022-08-17T00:08:03.117Z,12.87
2022-08-17T00:10:32.868Z,13.40
2022-08-17T00:13:01.449Z,20.43
2022-08-17T00:15:29.828Z,12.10
2022-08-17T00:17:58.131Z,12.20
2022-08-17T00:20:34.736Z,13.60
2022-08-17T00:23:04.140Z,12.93
2022-08-17T00:25:33.770Z,12.27
2022-08-17T00:28:02.448Z,16.30
2022-08-17T00:30:30.849Z,11.13
2022-08-17T00:33:21.597Z,14.37
2022-08-17T00:35:50.499Z,14.63
2022-08-17T00:38:18.989Z,12.80
2022-08-17T00:40:49.947Z,11.63
2022-08-17T00:43:21.767Z,14.70
2022-08-17T00:45:50.789Z,12.43
2022-08-17T00:48:26.148Z,13.20
2022-08-17T00:51:00.373Z,11.03
2022-08-17T00:53:30.843Z,13.30
2022-08-17T00:56:01.578Z,12.67
2022-08-17T00:58:35.895Z,13.97
2022-08-17T01:01:05.751Z,11.80
2022-08-17T01:03:34.758Z,11.30
2022-08-17T01:06:04.411Z,13.47
2022-08-17T01:08:33.020Z,12.20
2022-08-17T01:11:03.129Z,11.83
2022-08-17T01:13:38.169Z,12.60
2022-08-17T01:16:11.206Z,12.00
2022-08-17T01:18:39.618Z,11.30
2022-08-17T01:21:12.100Z,10.70
2022-08-17T01:23:42.368Z,13.90
2022-08-17T01:26:10.632Z,10.70
2022-08-17T01:28:53.889Z,11.87
2022-08-17T01:31:24.177Z,11.73
2022-08-17T01:33:52.453Z,10.63
2022-08-17T01:36:20.728Z,12.63
2022-08-17T01:38:50.661Z,13.53
2022-08-17T01:41:19.102Z,11.90
2022-08-17T01:43:50.029Z,10.40
2022-08-17T01:46:21.931Z,12.30
2022-08-17T01:48:51.439Z,12.00
2022-08-17T01:51:20.077Z,14.10
2022-08-17T01:53:52.539Z,13.90
2022-08-17T01:56:23.735Z,11.53
2022-08-17T01:58:52.046Z,17.83
2022-08-17T02:01:21.169Z,13.10
2022-08-17T02:03:56.284Z,14.90
2022-08-17T02:06:30.098Z,13.50
2022-08-17T02:09:03.518Z,16.93
2022-08-17T02:11:32.883Z,11.63
2022-08-17T02:14:03.110Z,11.80
2022-08-17T02:16:37.021Z,13.60
2022-08-17T02:19:07.269Z,13.53
2022-08-17T02:21:35.539Z,12.73
2022-08-17T02:24:06.078Z,12.30
2022-08-17T02:26:34.332Z,14.73
2022-08-17T02:29:04.058Z,11.90
2022-08-17T02:31:32.352Z,11.63
2022-08-17T02:34:04.678Z,11.07
2022-08-17T02:36:34.447Z,13.83
2022-08-17T02:39:03.346Z,10.90
2022-08-17T02:41:33.325Z,12.30
2022-08-17T02:44:01.662Z,13.10
2022-08-17T02:46:30.470Z,11.97
2022-08-17T02:48:58.770Z,12.57
2022-08-17T02:51:27.389Z,16.20
2022-08-17T02:54:35.778Z,11.93
2022-08-17T02:56:45.486Z,14.10
2022-08-17T02:59:13.744Z,12.40
2022-08-17T03:01:42.083Z,13.70
2022-08-17T03:04:10.428Z,12.30
2022-08-17T03:06:38.666Z,11.23
2022-08-17T03:09:06.929Z,12.27
2022-08-17T03:11:35.357Z,13.47
2022-08-17T03:14:05.014Z,13.33
2022-08-17T03:16:33.303Z,10.87
2022-08-17T03:19:03.076Z,11.10
2022-08-17T03:21:31.388Z,13.10
2022-08-17T03:23:59.887Z,16.80
2022-08-17T03:26:29.606Z,11.30
2022-08-17T03:28:58.162Z,10.57
2022-08-17T03:31:27.812Z,12.57
2022-08-17T03:33:56.272Z,10.57
2022-08-17T03:36:24.890Z,10.03
2022-08-17T03:38:53.645Z,10.13
2022-08-17T03:41:23.122Z,9.40
2022-08-17T03:43:51.397Z,9.97
2022-08-17T03:46:37.162Z,10.90
2022-08-17T03:49:25.758Z,9.73
2022-08-17T03:52:12.095Z,9.27
2022-08-17T03:54:58.053Z,9.80
2022-08-17T03:57:28.034Z,9.73
2022-08-17T03:59:56.866Z,8.93
2022-08-17T04:02:25.941Z,9.70
2022-08-17T04:04:55.666Z,9.20
2022-08-17T04:07:25.036Z,8.60
2022-08-17T04:09:53.279Z,9.43
2022-08-17T04:12:23.010Z,8.67
2022-08-17T04:14:52.700Z,8.33
2022-08-17T04:17:22.945Z,7.50
2022-08-17T04:19:51.204Z,9.13
2022-08-17T04:22:30.667Z,7.47
2022-08-17T04:25:02.105Z,9.20
2022-08-17T04:27:30.386Z,7.70
2022-08-17T04:29:58.915Z,12.50
2022-08-17T04:33:05.191Z,14.73
2022-08-17T04:35:19.259Z,10.23
2022-08-17T04:37:48.902Z,11.80
2022-08-17T04:40:35.206Z,8.53
2022-08-17T04:43:04.111Z,9.47
2022-08-17T04:45:32.762Z,9.60
2022-08-17T04:48:01.285Z,11.00
2022-08-17T04:50:29.580Z,11.97
2022-08-17T04:52:59.525Z,9.63
2022-08-17T04:55:28.208Z,7.80
2022-08-17T04:57:56.587Z,9.83
2022-08-17T05:00:25.892Z,10.00
2022-08-17T05:02:55.566Z,8.30
2022-08-17T05:05:25.539Z,9.90
2022-08-17T05:07:54.435Z,10.20
2022-08-17T05:10:24.701Z,12.27
2022-08-17T05:12:59.599Z,12.60
2022-08-17T05:15:28.375Z,9.83
2022-08-17T05:18:01.308Z,9.63
2022-08-17T05:20:30.099Z,10.10
2022-08-17T05:22:59.246Z,12.37
2022-08-17T05:25:32.804Z,9.07
2022-08-17T05:28:05.114Z,10.60
2022-08-17T05:30:34.905Z,12.90
2022-08-17T05:33:04.941Z,11.07
2022-08-17T05:35:34.581Z,12.13
2022-08-17T05:38:02.932Z,11.33
2022-08-17T05:40:33.242Z,10.17
2022-08-17T05:43:09.692Z,11.10
2022-08-17T05:45:54.667Z,11.90
2022-08-17T05:48:39.562Z,14.20
2022-08-17T05:51:17.392Z,13.13
2022-08-17T05:53:50.211Z,11.47
2022-08-17T05:56:29.683Z,11.43
2022-08-17T05:59:01.347Z,11.90
2022-08-17T06:01:35.049Z,12.33
2022-08-17T06:04:12.421Z,10.77
2022-08-17T06:06:42.582Z,11.23
2022-08-17T06:09:26.570Z,13.03
2022-08-17T06:12:00.077Z,13.07
2022-08-17T06:14:33.265Z,14.80
2022-08-17T06:17:04.185Z,12.23
2022-08-17T06:19:35.472Z,15.87
2022-08-17T06:22:05.743Z,12.50
2022-08-17T06:24:39.641Z,15.10
2022-08-17T06:27:15.176Z,12.03
2022-08-17T06:29:46.634Z,12.97
2022-08-17T06:32:16.587Z,12.57
2022-08-17T06:34:45.202Z,12.80
2022-08-17T06:37:34.919Z,12.03
2022-08-17T06:40:12.583Z,9.67
2022-08-17T06:43:02.111Z,19.03
2022-08-17T06:45:36.864Z,12.57
2022-08-17T06:48:08.419Z,15.97
2022-08-17T06:50:37.741Z,13.03
2022-08-17T06:53:07.012Z,13.10
2022-08-17T06:55:38.818Z,13.10
2022-08-17T06:58:15.977Z,11.70
2022-08-17T07:00:47.184Z,13.80
2022-08-17T07:03:19.013Z,10.60
2022-08-17T07:05:49.900Z,11.70
2022-08-17T07:08:19.785Z,9.03
2022-08-17T07:10:50.203Z,8.60
2022-08-17T07:13:29.420Z,13.13
2022-08-17T07:16:00.838Z,9.53
2022-08-17T07:18:33.078Z,19.40
2022-08-17T07:21:08.379Z,14.33
2022-08-17T07:23:41.318Z,7.90
2022-08-17T07:26:13.207Z,12.17
2022-08-17T07:28:44.686Z,12.43
2022-08-17T07:31:14.315Z,11.20
2022-08-17T07:33:59.729Z,12.00
2022-08-17T07:36:33.643Z,13.20
2022-08-17T07:39:02.428Z,16.30
2022-08-17T07:41:57.995Z,13.10
2022-08-17T07:44:22.172Z,13.10
2022-08-17T07:47:08.974Z,11.23
2022-08-17T07:49:38.924Z,14.30
2022-08-17T07:52:47.473Z,13.87
2022-08-17T07:54:58.476Z,16.97
2022-08-17T07:57:32.729Z,10.20
2022-08-17T08:00:32.389Z,11.93
2022-08-17T08:03:23.679Z,12.73
2022-08-17T08:05:57.584Z,13.33
2022-08-17T08:08:28.291Z,14.43
2022-08-17T08:11:02.449Z,16.00
2022-08-17T08:13:32.121Z,14.53
2022-08-17T08:16:14.391Z,14.63
2022-08-17T08:18:54.236Z,16.87
2022-08-17T08:21:30.073Z,20.17
2022-08-17T08:24:00.976Z,15.50
2022-08-17T08:26:35.014Z,12.60
2022-08-17T08:29:13.010Z,20.03
2022-08-17T08:31:49.362Z,14.60
2022-08-17T08:34:59.044Z,15.43
2022-08-17T08:37:25.041Z,15.90
2022-08-17T08:40:03.575Z,18.17
2022-08-17T08:42:37.153Z,16.53
2022-08-17T08:45:09.226Z,17.47
2022-08-17T08:47:45.064Z,13.37
2022-08-17T08:50:37.567Z,17.27
2022-08-17T08:53:14.283Z,16.60
2022-08-17T08:55:54.667Z,13.80
2022-08-17T08:58:31.293Z,18.90
2022-08-17T09:01:18.054Z,19.93
2022-08-17T09:03:53.453Z,16.30
2022-08-17T09:06:38.962Z,20.83
2022-08-17T09:09:15.819Z,22.43
2022-08-17T09:12:02.163Z,15.73
2022-08-17T09:14:45.419Z,20.77
2022-08-17T09:17:18.377Z,16.77
2022-08-17T09:19:50.253Z,16.83
2022-08-17T09:22:24.149Z,20.00
2022-08-17T09:24:59.355Z,18.77
2022-08-17T09:27:32.250Z,16.30
2022-08-17T09:30:02.469Z,17.83
2022-08-17T09:32:35.874Z,16.10
2022-08-17T09:35:07.638Z,18.67
2022-08-17T09:37:39.458Z,19.60
2022-08-17T09:40:11.805Z,22.17
2022-08-17T09:42:44.612Z,18.37
2022-08-17T09:45:21.953Z,12.20
2022-08-17T09:48:18.218Z,14.07
2022-08-17T09:50:55.263Z,11.17
2022-08-17T09:53:32.637Z,12.37
2022-08-17T09:56:18.837Z,12.77
2022-08-17T09:58:56.396Z,11.37
2022-08-17T10:01:27.351Z,11.80
2022-08-17T10:04:04.122Z,11.70
2022-08-17T10:06:34.356Z,11.57
2022-08-17T10:09:08.321Z,12.63
2022-08-17T10:11:57.502Z,11.23
2022-08-17T10:14:37.359Z,14.63
2022-08-17T10:17:14.538Z,13.43
2022-08-17T10:19:47.676Z,13.60
2022-08-17T10:22:38.819Z,13.40
2022-08-17T10:25:42.535Z,12.37
2022-08-17T10:28:20.405Z,14.37
2022-08-17T10:31:05.273Z,13.43
2022-08-17T10:33:48.462Z,11.60
2022-08-17T10:36:20.402Z,19.70
2022-08-17T10:38:49.681Z,18.90
2022-08-17T10:41:30.844Z,18.60
2022-08-17T10:44:38.235Z,19.33
2022-08-17T10:46:58.069Z,17.70
2022-08-17T10:49:29.349Z,20.67
2022-08-17T10:51:58.681Z,15.23
2022-08-17T10:54:47.198Z,16.53
2022-08-17T10:57:34.063Z,18.13
2022-08-17T11:00:02.845Z,18.90
2022-08-17T11:02:40.651Z,19.70
2022-08-17T11:05:31.058Z,18.70
2022-08-17T11:08:14.159Z,19.43
2022-08-17T11:10:54.525Z,19.30
2022-08-17T11:13:28.870Z,24.23
2022-08-17T11:16:08.280Z,21.47
2022-08-17T11:18:52.616Z,23.60
2022-08-17T11:21:39.243Z,21.43
2022-08-17T11:24:15.526Z,18.17
2022-08-17T11:26:47.554Z,21.40
2022-08-17T11:29:21.280Z,19.50
2022-08-17T11:32:00.471Z,19.30
2022-08-17T11:34:31.670Z,18.90
2022-08-17T11:37:05.799Z,18.33
2022-08-17T11:39:43.270Z,18.73
2022-08-17T11:42:19.893Z,15.47
2022-08-17T11:44:53.001Z,19.27
2022-08-17T11:47:49.518Z,15.53
2022-08-17T11:50:57.704Z,19.97
2022-08-17T11:53:45.763Z,21.00
2022-08-17T11:56:32.039Z,19.17
2022-08-17T11:59:01.544Z,23.97
2022-08-17T12:01:48.364Z,18.50
2022-08-17T12:04:21.249Z,19.33
2022-08-17T12:06:52.180Z,21.70
2022-08-17T12:09:24.567Z,20.87
2022-08-17T12:12:13.133Z,19.50
2022-08-17T12:15:08.873Z,21.97
2022-08-17T12:17:40.971Z,24.63
2022-08-17T12:20:23.108Z,25.13
2022-08-17T12:22:57.580Z,25.37
2022-08-17T12:25:31.400Z,23.83
2022-08-17T12:28:04.999Z,21.87
2022-08-17T12:30:34.237Z,22.27
2022-08-17T12:33:02.563Z,21.67
2022-08-17T12:35:35.157Z,20.30
2022-08-17T12:38:32.251Z,21.60
2022-08-17T12:40:58.049Z,25.20
2022-08-17T12:43:32.926Z,21.50
2022-08-17T12:46:10.691Z,21.70
2022-08-17T12:48:59.074Z,20.87
2022-08-17T12:51:29.465Z,21.37
2022-08-17T12:53:59.054Z,25.80
2022-08-17T12:56:27.417Z,20.83
2022-08-17T12:58:56.578Z,20.40
2022-08-17T13:01:25.885Z,23.63
2022-08-17T13:03:55.278Z,19.20
2022-08-17T13:06:28.638Z,23.37
2022-08-17T13:08:56.912Z,20.17
2022-08-17T13:11:28.837Z,20.73
2022-08-17T13:13:57.626Z,21.93
2022-08-17T13:16:27.013Z,21.23
2022-08-17T13:18:58.321Z,16.33
2022-08-17T13:21:30.577Z,23.77
2022-08-17T13:24:00.082Z,25.07
2022-08-17T13:26:32.506Z,20.83
2022-08-17T13:29:01.179Z,17.47
2022-08-17T13:31:41.415Z,15.80
2022-08-17T13:34:33.327Z,24.13
2022-08-17T13:37:25.680Z,14.83
2022-08-17T13:39:56.366Z,25.23
2022-08-17T13:42:53.551Z,15.70
2022-08-17T13:45:38.952Z,17.63
2022-08-17T13:48:08.751Z,17.17
2022-08-17T13:50:42.209Z,33.90
2022-08-17T13:53:21.106Z,23.53
2022-08-17T13:55:50.519Z,22.97
2022-08-17T13:58:24.185Z,20.27
2022-08-17T14:00:52.854Z,25.70
2022-08-17T14:03:21.689Z,26.87
2022-08-17T14:05:50.312Z,27.30
2022-08-17T14:08:19.824Z,24.80
2022-08-17T14:10:53.467Z,23.93
2022-08-17T14:13:21.780Z,23.23
2022-08-17T14:15:55.581Z,19.23
2022-08-17T14:18:35.679Z,17.47
2022-08-17T14:21:13.685Z,15.83
2022-08-17T14:23:43.670Z,21.00
2022-08-17T14:26:23.212Z,26.17
2022-08-17T14:28:56.462Z,21.70
2022-08-17T14:31:27.662Z,23.13
2022-08-17T14:33:58.846Z,16.97
2022-08-17T14:36:27.318Z,18.53
2022-08-17T14:38:56.391Z,18.77
2022-08-17T14:41:24.708Z,20.80
2022-08-17T14:43:53.911Z,21.87
2022-08-17T14:46:22.609Z,22.37
2022-08-17T14:48:57.217Z,21.77
2022-08-17T14:51:27.528Z,17.60
2022-08-17T14:53:57.109Z,17.10
2022-08-17T14:56:25.561Z,16.33
2022-08-17T14:58:54.084Z,21.83
2022-08-17T15:01:24.512Z,17.30
2022-08-17T15:03:54.994Z,14.83
2022-08-17T15:06:24.721Z,16.20
2022-08-17T15:08:53.746Z,13.33
2022-08-17T15:11:22.027Z,12.97
2022-08-17T15:13:52.365Z,20.10
2022-08-17T15:16:21.537Z,14.73
2022-08-17T15:18:50.231Z,13.30
2022-08-17T15:21:20.116Z,14.10
2022-08-17T15:23:48.393Z,10.17
2022-08-17T15:26:16.809Z,11.50
2022-08-17T15:28:45.034Z,10.57
2022-08-17T15:31:31.842Z,14.70
2022-08-17T15:34:00.775Z,13.20
2022-08-17T15:36:30.484Z,15.03
2022-08-17T15:38:59.078Z,13.00
2022-08-17T15:41:28.177Z,15.23
2022-08-17T15:43:56.894Z,14.27
2022-08-17T15:46:25.868Z,13.40
2022-08-17T15:48:58.111Z,14.37
2022-08-17T15:51:27.729Z,11.53
2022-08-17T15:53:58.373Z,12.53
2022-08-17T15:56:26.863Z,12.70
2022-08-17T15:58:55.766Z,11.40
2022-08-17T16:02:27.760Z,11.37
2022-08-17T16:04:30.199Z,14.37
2022-08-17T16:06:59.738Z,12.70
2022-08-17T16:09:29.874Z,12.03
2022-08-17T16:11:58.289Z,12.53
2022-08-17T16:14:33.666Z,11.17
2022-08-17T16:17:03.549Z,12.43
2022-08-17T16:19:32.451Z,13.27
2022-08-17T16:22:00.763Z,13.30
2022-08-17T16:24:30.747Z,12.87
2022-08-17T16:26:59.299Z,12.70
2022-08-17T16:29:27.574Z,17.33
2022-08-17T16:31:56.224Z,14.30
2022-08-17T16:34:24.773Z,11.40
2022-08-17T16:36:54.956Z,11.17
2022-08-17T16:39:24.917Z,11.90
2022-08-17T16:41:54.707Z,13.63
2022-08-17T16:44:23.338Z,11.73
2022-08-17T16:46:51.748Z,12.60
2022-08-17T16:49:36.586Z,12.40
2022-08-17T16:52:06.822Z,14.23
2022-08-17T16:54:35.207Z,12.80
2022-08-17T16:57:05.558Z,10.60
2022-08-17T16:59:40.258Z,11.73
2022-08-17T17:02:12.624Z,14.63
2022-08-17T17:04:44.902Z,20.93
2022-08-17T17:07:20.377Z,16.07
2022-08-17T17:09:52.564Z,11.67
2022-08-17T17:12:59.694Z,14.17
2022-08-17T17:15:12.269Z,13.17
2022-08-17T17:17:41.149Z,14.77
2022-08-17T17:20:12.001Z,10.20
2022-08-17T17:22:46.016Z,11.60
2022-08-17T17:25:17.101Z,12.07
2022-08-17T17:27:51.910Z,16.73
2022-08-17T17:30:22.485Z,12.20
2022-08-17T17:32:52.548Z,15.47
2022-08-17T17:35:24.802Z,16.27
2022-08-17T17:37:53.986Z,13.57
2022-08-17T17:40:24.265Z,15.37
2022-08-17T17:42:55.530Z,13.43
2022-08-17T17:45:26.017Z,15.00
2022-08-17T17:47:54.756Z,16.50
2022-08-17T17:50:28.929Z,12.83
2022-08-17T17:53:02.065Z,16.90
2022-08-17T17:55:35.472Z,16.50
2022-08-17T17:58:10.778Z,10.83
2022-08-17T18:00:40.932Z,12.57
2022-08-17T18:03:21.869Z,12.00
2022-08-17T18:05:54.412Z,11.43
2022-08-17T18:08:34.677Z,12.30
2022-08-17T18:11:10.333Z,18.00
2022-08-17T18:13:50.540Z,12.60
2022-08-17T18:16:20.064Z,17.33
2022-08-17T18:18:50.084Z,18.73
2022-08-17T18:21:19.719Z,12.70
2022-08-17T18:23:49.038Z,12.93
2022-08-17T18:26:36.474Z,18.47
2022-08-17T18:29:14.192Z,16.37
2022-08-17T18:31:42.441Z,17.30
2022-08-17T18:34:45.892Z,12.23
2022-08-17T18:37:10.349Z,12.90
2022-08-17T18:39:38.791Z,12.70
2022-08-17T18:42:24.144Z,11.73
2022-08-17T18:44:55.283Z,12.57
2022-08-17T18:47:24.837Z,12.33
2022-08-17T18:49:57.310Z,11.33
2022-08-17T18:52:30.239Z,13.33
2022-08-17T18:55:03.144Z,13.67
2022-08-17T18:57:33.255Z,12.10
2022-08-17T19:00:03.485Z,12.00
2022-08-17T19:02:45.266Z,15.30
2022-08-17T19:05:27.100Z,13.93
2022-08-17T19:07:55.791Z,13.90
2022-08-17T19:10:25.929Z,15.00
2022-08-17T19:13:00.708Z,11.43
2022-08-17T19:15:35.400Z,12.40
2022-08-17T19:18:05.207Z,13.60
2022-08-17T19:20:36.438Z,19.23
2022-08-17T19:23:08.426Z,15.43
2022-08-17T19:25:40.362Z,10.70
2022-08-17T19:28:21.802Z,11.07
2022-08-17T19:30:56.404Z,10.30
2022-08-17T19:33:24.933Z,11.10
2022-08-17T19:35:59.063Z,12.37
2022-08-17T19:38:31.362Z,13.97
2022-08-17T19:41:06.681Z,11.30
2022-08-17T19:43:51.210Z,10.77
2022-08-17T19:46:26.171Z,18.70
2022-08-17T19:48:58.340Z,18.27
2022-08-17T19:51:32.746Z,18.73
2022-08-17T19:54:06.679Z,17.07
2022-08-17T19:56:39.643Z,21.10
2022-08-17T19:59:12.413Z,19.30
2022-08-17T20:01:46.951Z,18.60
2022-08-17T20:04:32.962Z,17.97
2022-08-17T20:07:08.359Z,27.63
2022-08-17T20:09:38.790Z,21.53
2022-08-17T20:12:09.567Z,24.37
2022-08-17T20:14:41.238Z,22.20
2022-08-17T20:17:24.094Z,24.37
2022-08-17T20:19:55.362Z,20.43
2022-08-17T20:22:26.847Z,19.17
2022-08-17T20:24:56.026Z,23.70
2022-08-17T20:27:31.491Z,21.17
2022-08-17T20:30:01.709Z,25.90
2022-08-17T20:32:32.941Z,21.37
2022-08-17T20:35:10.337Z,23.10
2022-08-17T20:37:43.143Z,22.03
2022-08-17T20:40:22.534Z,21.40
2022-08-17T20:42:50.851Z,26.27
2022-08-17T20:45:37.662Z,21.10
2022-08-17T20:51:13.518Z,23.60
2022-08-17T20:54:00.661Z,25.10
2022-08-17T20:56:48.285Z,24.57
2022-08-17T20:59:31.637Z,25.73
2022-08-17T21:02:07.218Z,23.93
2022-08-17T21:04:47.319Z,23.60
2022-08-17T21:07:27.606Z,21.80
2022-08-17T21:10:09.526Z,22.87
2022-08-17T21:12:42.730Z,22.00
2022-08-17T21:15:20.337Z,21.77
2022-08-17T21:17:51.555Z,21.93
2022-08-17T21:20:32.557Z,23.00
2022-08-17T21:23:13.360Z,22.67
2022-08-17T21:25:56.033Z,22.07
2022-08-17T21:28:30.117Z,21.67
2022-08-17T21:31:08.261Z,26.30
2022-08-17T21:33:38.508Z,20.23
2022-08-17T21:36:29.450Z,24.20
2022-08-17T21:39:00.328Z,22.57
2022-08-17T21:41:30.620Z,20.50
2022-08-17T21:44:02.798Z,20.60
2022-08-17T21:46:31.910Z,23.40
2022-08-17T21:49:05.104Z,22.47
2022-08-17T21:51:45.745Z,19.40
2022-08-17T21:54:23.128Z,23.43
2022-08-17T21:56:51.483Z,23.07
2022-08-17T21:59:25.676Z,24.37
2022-08-17T22:01:57.867Z,24.30
2022-08-17T22:04:28.865Z,24.40
2022-08-17T22:06:59.329Z,26.67
2022-08-17T22:09:28.983Z,28.27
2022-08-17T22:12:00.126Z,23.53
2022-08-17T22:14:51.646Z,24.13
2022-08-17T22:17:19.591Z,20.77
2022-08-17T22:19:50.145Z,27.00
2022-08-17T22:22:27.649Z,28.97
2022-08-17T22:24:57.789Z,26.20
2022-08-17T22:27:40.942Z,24.27
2022-08-17T22:30:17.899Z,23.40
2022-08-17T22:32:48.240Z,26.40
2022-08-17T22:35:18.155Z,28.33
2022-08-17T22:37:47.868Z,23.80
2022-08-17T22:40:26.258Z,25.80
2022-08-17T22:42:54.562Z,26.03
2022-08-17T22:45:24.205Z,22.60
2022-08-17T22:47:55.781Z,25.40
2022-08-17T22:50:25.332Z,25.13
2022-08-17T22:53:19.134Z,25.57
2022-08-17T22:56:04.755Z,23.83
2022-08-17T22:58:59.214Z,25.97
2022-08-17T23:01:29.409Z,23.80
2022-08-17T23:03:59.171Z,28.80
2022-08-17T23:06:27.458Z,26.13
2022-08-17T23:08:57.975Z,22.37
2022-08-17T23:11:42.865Z,24.43
2022-08-17T23:14:16.487Z,25.90
2022-08-17T23:16:44.808Z,25.93
2022-08-17T23:19:15.206Z,23.20
2022-08-17T23:21:44.823Z,25.13
2022-08-17T23:24:18.674Z,25.00
2022-08-17T23:26:47.376Z,28.93
2022-08-17T23:29:15.665Z,29.30
2022-08-17T23:31:43.942Z,24.07
2022-08-17T23:34:15.086Z,23.27
2022-08-17T23:36:49.769Z,24.80
2022-08-17T23:39:27.377Z,23.83
2022-08-17T23:41:57.152Z,24.43
2022-08-17T23:44:25.602Z,24.53
2022-08-17T23:46:54.139Z,25.47
2022-08-17T23:49:23.444Z,25.30
2022-08-17T23:51:53.608Z,24.50
2022-08-17T23:54:24.162Z,25.67
2022-08-17T23:56:52.769Z,25.23
2022-08-17T23:59:22.663Z,24.60
